Somes Bar, California
Current Conditions -  °F | °C
As of 11:53 PM on Thursday 23 Oct 2014 (Local Time) from KACV Reporting Station
Light Rain Light Rain  
Wind Chill: 57°   Ceiling: 9000
Heat Index: 57°   Visibility: 10mi
Dew Point: 52°   Wind: 9mph
Humidity: 83%   Direction: 130°SE
Pressure: 29.99"   Gusts: NA
Location:  41.38°N, 123.49°W
Report Text: KACV 240653Z AUTO 13008KT 10SM -RA OVC090 14/11 A2999 RMK AO2 SLP158 P0001 T01390111
Loading
Personal Weather Stations






























Interactive Weather Map
Tropical Storm Tracking
New forecast layout! Learn more

10-Day Weather Forecast

Advertisements
Track Severe Weather on mobile